sensor_id;sensor_type;location;lat;lon;timestamp;P1;durP1;ratioP1;P2;durP2;ratioP2
6135;SDS011;24008;42.664;23.372;2024-03-02T00:00:38;36.20;;;20.77;;
6135;SDS011;24008;42.664;23.372;2024-03-02T00:03:06;44.43;;;24.93;;
6135;SDS011;24008;42.664;23.372;2024-03-02T00:05:34;43.40;;;22.90;;
6135;SDS011;24008;42.664;23.372;2024-03-02T00:08:01;46.40;;;24.33;;
6135;SDS011;24008;42.664;23.372;2024-03-02T00:10:35;41.80;;;21.87;;
6135;SDS011;24008;42.664;23.372;2024-03-02T00:13:05;47.00;;;24.63;;
6135;SDS011;24008;42.664;23.372;2024-03-02T00:15:39;43.57;;;24.67;;
6135;SDS011;24008;42.664;23.372;2024-03-02T00:18:12;43.87;;;23.50;;
6135;SDS011;24008;42.664;23.372;2024-03-02T00:20:40;43.50;;;23.57;;
6135;SDS011;24008;42.664;23.372;2024-03-02T00:23:08;41.83;;;23.73;;
6135;SDS011;24008;42.664;23.372;2024-03-02T00:25:37;42.37;;;25.13;;
6135;SDS011;24008;42.664;23.372;2024-03-02T00:28:10;39.77;;;22.83;;
6135;SDS011;24008;42.664;23.372;2024-03-02T00:30:57;45.13;;;24.00;;
6135;SDS011;24008;42.664;23.372;2024-03-02T00:33:30;44.00;;;25.53;;
6135;SDS011;24008;42.664;23.372;2024-03-02T00:35:58;42.27;;;23.87;;
6135;SDS011;24008;42.664;23.372;2024-03-02T00:38:26;49.10;;;24.97;;
6135;SDS011;24008;42.664;23.372;2024-03-02T00:40:54;44.60;;;25.57;;
6135;SDS011;24008;42.664;23.372;2024-03-02T00:46:08;42.80;;;21.90;;
6135;SDS011;24008;42.664;23.372;2024-03-02T00:48:38;41.73;;;22.40;;
6135;SDS011;24008;42.664;23.372;2024-03-02T00:51:05;40.90;;;20.53;;
6135;SDS011;24008;42.664;23.372;2024-03-02T00:53:33;42.23;;;23.17;;
6135;SDS011;24008;42.664;23.372;2024-03-02T00:55:59;39.87;;;21.90;;
6135;SDS011;24008;42.664;23.372;2024-03-02T00:58:27;38.10;;;21.27;;
6135;SDS011;24008;42.664;23.372;2024-03-02T01:00:54;39.10;;;20.70;;
6135;SDS011;24008;42.664;23.372;2024-03-02T01:03:21;36.22;;;20.83;;
6135;SDS011;24008;42.664;23.372;2024-03-02T01:05:49;38.70;;;21.27;;
6135;SDS011;24008;42.664;23.372;2024-03-02T01:08:16;38.20;;;21.47;;
6135;SDS011;24008;42.664;23.372;2024-03-02T01:10:43;36.47;;;21.17;;
6135;SDS011;24008;42.664;23.372;2024-03-02T01:13:09;37.73;;;20.87;;
6135;SDS011;24008;42.664;23.372;2024-03-02T01:15:36;37.73;;;21.43;;
6135;SDS011;24008;42.664;23.372;2024-03-02T01:18:03;44.93;;;22.90;;
6135;SDS011;24008;42.664;23.372;2024-03-02T01:20:30;41.00;;;22.10;;
6135;SDS011;24008;42.664;23.372;2024-03-02T01:22:59;41.40;;;23.50;;
6135;SDS011;24008;42.664;23.372;2024-03-02T01:25:25;47.30;;;23.60;;
6135;SDS011;24008;42.664;23.372;2024-03-02T01:27:52;38.43;;;22.07;;
6135;SDS011;24008;42.664;23.372;2024-03-02T01:30:19;45.87;;;23.43;;
6135;SDS011;24008;42.664;23.372;2024-03-02T01:32:46;43.53;;;23.17;;
6135;SDS011;24008;42.664;23.372;2024-03-02T01:35:13;39.73;;;22.07;;
6135;SDS011;24008;42.664;23.372;2024-03-02T01:37:40;44.37;;;24.33;;
6135;SDS011;24008;42.664;23.372;2024-03-02T01:40:09;40.03;;;23.40;;
6135;SDS011;24008;42.664;23.372;2024-03-02T01:42:37;45.70;;;23.83;;
6135;SDS011;24008;42.664;23.372;2024-03-02T01:45:05;36.27;;;20.90;;
6135;SDS011;24008;42.664;23.372;2024-03-02T01:47:32;39.10;;;22.13;;
6135;SDS011;24008;42.664;23.372;2024-03-02T01:49:59;47.13;;;24.10;;
6135;SDS011;24008;42.664;23.372;2024-03-02T01:52:27;44.20;;;24.13;;
6135;SDS011;24008;42.664;23.372;2024-03-02T01:54:54;44.27;;;25.20;;
6135;SDS011;24008;42.664;23.372;2024-03-02T01:57:23;47.80;;;26.40;;
6135;SDS011;24008;42.664;23.372;2024-03-02T01:59:49;45.87;;;25.27;;
6135;SDS011;24008;42.664;23.372;2024-03-02T02:02:16;48.17;;;25.50;;
6135;SDS011;24008;42.664;23.372;2024-03-02T02:04:43;46.50;;;25.13;;
6135;SDS011;24008;42.664;23.372;2024-03-02T02:07:10;48.43;;;25.57;;
6135;SDS011;24008;42.664;23.372;2024-03-02T02:09:39;47.10;;;24.80;;
6135;SDS011;24008;42.664;23.372;2024-03-02T02:12:06;45.77;;;24.33;;
6135;SDS011;24008;42.664;23.372;2024-03-02T02:14:34;46.03;;;26.37;;
6135;SDS011;24008;42.664;23.372;2024-03-02T02:17:01;45.13;;;25.33;;
6135;SDS011;24008;42.664;23.372;2024-03-02T02:19:28;46.73;;;25.77;;
6135;SDS011;24008;42.664;23.372;2024-03-02T02:21:56;49.97;;;26.70;;
6135;SDS011;24008;42.664;23.372;2024-03-02T02:24:23;51.03;;;27.13;;
6135;SDS011;24008;42.664;23.372;2024-03-02T02:26:49;52.13;;;27.53;;
6135;SDS011;24008;42.664;23.372;2024-03-02T02:29:16;51.53;;;26.60;;
6135;SDS011;24008;42.664;23.372;2024-03-02T02:31:43;52.00;;;26.50;;
6135;SDS011;24008;42.664;23.372;2024-03-02T02:34:09;50.07;;;27.77;;
6135;SDS011;24008;42.664;23.372;2024-03-02T02:36:36;53.07;;;27.30;;
6135;SDS011;24008;42.664;23.372;2024-03-02T02:39:06;46.50;;;25.10;;
6135;SDS011;24008;42.664;23.372;2024-03-02T02:41:36;51.80;;;26.03;;
6135;SDS011;24008;42.664;23.372;2024-03-02T02:44:02;51.43;;;26.13;;
6135;SDS011;24008;42.664;23.372;2024-03-02T02:46:29;45.40;;;24.80;;
6135;SDS011;24008;42.664;23.372;2024-03-02T02:48:56;47.77;;;25.00;;
6135;SDS011;24008;42.664;23.372;2024-03-02T02:51:23;47.10;;;25.40;;
6135;SDS011;24008;42.664;23.372;2024-03-02T02:53:50;41.80;;;22.03;;
6135;SDS011;24008;42.664;23.372;2024-03-02T02:56:18;46.63;;;24.50;;
6135;SDS011;24008;42.664;23.372;2024-03-02T02:58:45;48.00;;;26.73;;
6135;SDS011;24008;42.664;23.372;2024-03-02T03:01:12;52.20;;;26.30;;
6135;SDS011;24008;42.664;23.372;2024-03-02T03:03:39;47.03;;;27.07;;
6135;SDS011;24008;42.664;23.372;2024-03-02T03:06:06;51.07;;;25.93;;
6135;SDS011;24008;42.664;23.372;2024-03-02T03:08:32;54.20;;;27.60;;
6135;SDS011;24008;42.664;23.372;2024-03-02T03:10:59;50.40;;;27.13;;
6135;SDS011;24008;42.664;23.372;2024-03-02T03:13:27;56.73;;;28.63;;
6135;SDS011;24008;42.664;23.372;2024-03-02T03:15:54;49.67;;;25.97;;
6135;SDS011;24008;42.664;23.372;2024-03-02T03:18:21;54.07;;;28.10;;
6135;SDS011;24008;42.664;23.372;2024-03-02T03:20:48;57.20;;;29.03;;
6135;SDS011;24008;42.664;23.372;2024-03-02T03:23:15;56.10;;;29.67;;
6135;SDS011;24008;42.664;23.372;2024-03-02T03:25:42;56.90;;;29.60;;
6135;SDS011;24008;42.664;23.372;2024-03-02T03:28:09;51.40;;;28.73;;
6135;SDS011;24008;42.664;23.372;2024-03-02T03:30:37;51.90;;;27.63;;
6135;SDS011;24008;42.664;23.372;2024-03-02T03:33:05;51.27;;;27.43;;
6135;SDS011;24008;42.664;23.372;2024-03-02T03:35:32;50.63;;;26.57;;
6135;SDS011;24008;42.664;23.372;2024-03-02T03:37:59;55.67;;;27.90;;
6135;SDS011;24008;42.664;23.372;2024-03-02T03:40:26;51.73;;;27.97;;
6135;SDS011;24008;42.664;23.372;2024-03-02T03:42:53;56.70;;;28.53;;
6135;SDS011;24008;42.664;23.372;2024-03-02T03:45:21;53.10;;;28.10;;
6135;SDS011;24008;42.664;23.372;2024-03-02T03:47:52;56.73;;;28.60;;
6135;SDS011;24008;42.664;23.372;2024-03-02T03:50:19;55.20;;;28.27;;
6135;SDS011;24008;42.664;23.372;2024-03-02T03:52:46;53.23;;;28.07;;
6135;SDS011;24008;42.664;23.372;2024-03-02T03:55:13;55.13;;;28.50;;
6135;SDS011;24008;42.664;23.372;2024-03-02T03:57:40;55.60;;;29.93;;
6135;SDS011;24008;42.664;23.372;2024-03-02T04:00:07;52.47;;;27.90;;
6135;SDS011;24008;42.664;23.372;2024-03-02T04:02:35;53.60;;;28.00;;
6135;SDS011;24008;42.664;23.372;2024-03-02T04:05:03;52.60;;;28.10;;
6135;SDS011;24008;42.664;23.372;2024-03-02T04:07:34;50.73;;;26.63;;
6135;SDS011;24008;42.664;23.372;2024-03-02T04:10:05;53.10;;;25.80;;
6135;SDS011;24008;42.664;23.372;2024-03-02T04:12:34;50.37;;;26.97;;
6135;SDS011;24008;42.664;23.372;2024-03-02T04:15:01;47.77;;;25.50;;
6135;SDS011;24008;42.664;23.372;2024-03-02T04:17:29;50.23;;;25.97;;
6135;SDS011;24008;42.664;23.372;2024-03-02T04:19:57;45.60;;;25.63;;
6135;SDS011;24008;42.664;23.372;2024-03-02T04:22:26;47.80;;;25.23;;
6135;SDS011;24008;42.664;23.372;2024-03-02T04:24:52;47.07;;;24.63;;
6135;SDS011;24008;42.664;23.372;2024-03-02T04:27:19;45.40;;;24.70;;
6135;SDS011;24008;42.664;23.372;2024-03-02T04:29:46;48.00;;;24.57;;
6135;SDS011;24008;42.664;23.372;2024-03-02T04:32:13;43.43;;;24.57;;
6135;SDS011;24008;42.664;23.372;2024-03-02T04:34:39;46.43;;;25.30;;
6135;SDS011;24008;42.664;23.372;2024-03-02T04:37:06;44.63;;;25.43;;
6135;SDS011;24008;42.664;23.372;2024-03-02T04:39:35;50.63;;;26.57;;
6135;SDS011;24008;42.664;23.372;2024-03-02T04:42:02;48.47;;;25.07;;
6135;SDS011;24008;42.664;23.372;2024-03-02T04:44:29;44.00;;;25.23;;
6135;SDS011;24008;42.664;23.372;2024-03-02T04:46:56;47.27;;;25.93;;
6135;SDS011;24008;42.664;23.372;2024-03-02T04:49:23;45.27;;;24.10;;
6135;SDS011;24008;42.664;23.372;2024-03-02T04:51:49;44.37;;;24.27;;
6135;SDS011;24008;42.664;23.372;2024-03-02T04:54:16;44.87;;;24.90;;
6135;SDS011;24008;42.664;23.372;2024-03-02T04:56:44;46.87;;;25.50;;
6135;SDS011;24008;42.664;23.372;2024-03-02T04:59:14;50.83;;;25.93;;
6135;SDS011;24008;42.664;23.372;2024-03-02T05:01:42;50.07;;;25.30;;
6135;SDS011;24008;42.664;23.372;2024-03-02T05:04:09;46.57;;;25.37;;
6135;SDS011;24008;42.664;23.372;2024-03-02T05:06:36;53.33;;;27.20;;
6135;SDS011;24008;42.664;23.372;2024-03-02T05:09:04;53.33;;;26.40;;
6135;SDS011;24008;42.664;23.372;2024-03-02T05:11:31;52.37;;;26.33;;
6135;SDS011;24008;42.664;23.372;2024-03-02T05:14:19;45.80;;;25.40;;
6135;SDS011;24008;42.664;23.372;2024-03-02T05:16:46;52.03;;;26.57;;
6135;SDS011;24008;42.664;23.372;2024-03-02T05:19:13;48.60;;;25.97;;
6135;SDS011;24008;42.664;23.372;2024-03-02T05:21:39;51.07;;;26.83;;
6135;SDS011;24008;42.664;23.372;2024-03-02T05:24:06;54.07;;;27.67;;
6135;SDS011;24008;42.664;23.372;2024-03-02T05:26:33;52.10;;;27.77;;
6135;SDS011;24008;42.664;23.372;2024-03-02T05:29:00;57.10;;;29.47;;
6135;SDS011;24008;42.664;23.372;2024-03-02T05:31:29;55.10;;;28.33;;
6135;SDS011;24008;42.664;23.372;2024-03-02T05:33:56;55.70;;;29.40;;
6135;SDS011;24008;42.664;23.372;2024-03-02T05:36:23;59.37;;;30.20;;
6135;SDS011;24008;42.664;23.372;2024-03-02T05:38:49;60.97;;;30.13;;
6135;SDS011;24008;42.664;23.372;2024-03-02T05:41:16;63.60;;;30.50;;
6135;SDS011;24008;42.664;23.372;2024-03-02T05:43:43;54.97;;;28.50;;
6135;SDS011;24008;42.664;23.372;2024-03-02T05:46:10;63.60;;;29.90;;
6135;SDS011;24008;42.664;23.372;2024-03-02T05:48:38;54.40;;;26.60;;
6135;SDS011;24008;42.664;23.372;2024-03-02T05:51:05;55.83;;;27.53;;
6135;SDS011;24008;42.664;23.372;2024-03-02T05:53:31;57.07;;;28.40;;
6135;SDS011;24008;42.664;23.372;2024-03-02T05:55:58;55.50;;;28.30;;
6135;SDS011;24008;42.664;23.372;2024-03-02T05:58:25;59.23;;;30.03;;
6135;SDS011;24008;42.664;23.372;2024-03-02T06:01:02;60.73;;;30.73;;
6135;SDS011;24008;42.664;23.372;2024-03-02T06:03:29;62.27;;;30.17;;
6135;SDS011;24008;42.664;23.372;2024-03-02T06:05:58;59.13;;;30.00;;
6135;SDS011;24008;42.664;23.372;2024-03-02T06:08:24;64.33;;;29.67;;
6135;SDS011;24008;42.664;23.372;2024-03-02T06:10:51;60.13;;;29.27;;
6135;SDS011;24008;42.664;23.372;2024-03-02T06:13:18;61.83;;;29.57;;
6135;SDS011;24008;42.664;23.372;2024-03-02T06:15:44;59.47;;;28.13;;
6135;SDS011;24008;42.664;23.372;2024-03-02T06:18:11;62.23;;;31.57;;
6135;SDS011;24008;42.664;23.372;2024-03-02T06:20:38;64.27;;;31.63;;
6135;SDS011;24008;42.664;23.372;2024-03-02T06:23:06;59.53;;;30.23;;
6135;SDS011;24008;42.664;23.372;2024-03-02T06:25:32;60.07;;;31.13;;
6135;SDS011;24008;42.664;23.372;2024-03-02T06:27:59;60.27;;;30.23;;
6135;SDS011;24008;42.664;23.372;2024-03-02T06:30:26;59.93;;;30.50;;
6135;SDS011;24008;42.664;23.372;2024-03-02T06:32:52;66.50;;;32.37;;
6135;SDS011;24008;42.664;23.372;2024-03-02T06:35:19;65.40;;;31.30;;
6135;SDS011;24008;42.664;23.372;2024-03-02T06:37:45;60.57;;;30.60;;
6135;SDS011;24008;42.664;23.372;2024-03-02T06:40:14;63.23;;;30.83;;
6135;SDS011;24008;42.664;23.372;2024-03-02T06:42:40;63.23;;;31.43;;
6135;SDS011;24008;42.664;23.372;2024-03-02T06:45:07;67.17;;;32.40;;
6135;SDS011;24008;42.664;23.372;2024-03-02T06:47:34;68.30;;;32.93;;
6135;SDS011;24008;42.664;23.372;2024-03-02T06:50:01;64.10;;;30.77;;
6135;SDS011;24008;42.664;23.372;2024-03-02T06:52:27;72.43;;;33.30;;
6135;SDS011;24008;42.664;23.372;2024-03-02T06:54:54;68.77;;;33.93;;
6135;SDS011;24008;42.664;23.372;2024-03-02T06:57:22;68.43;;;33.07;;
6135;SDS011;24008;42.664;23.372;2024-03-02T06:59:49;71.87;;;32.40;;
6135;SDS011;24008;42.664;23.372;2024-03-02T07:02:19;62.80;;;31.70;;
6135;SDS011;24008;42.664;23.372;2024-03-02T07:04:45;59.57;;;31.77;;
6135;SDS011;24008;42.664;23.372;2024-03-02T07:07:12;67.60;;;33.33;;
6135;SDS011;24008;42.664;23.372;2024-03-02T07:09:39;69.40;;;32.73;;
6135;SDS011;24008;42.664;23.372;2024-03-02T07:12:06;61.00;;;29.80;;
6135;SDS011;24008;42.664;23.372;2024-03-02T07:14:34;109.57;;;51.83;;
6135;SDS011;24008;42.664;23.372;2024-03-02T07:17:17;64.77;;;32.17;;
6135;SDS011;24008;42.664;23.372;2024-03-02T07:19:44;73.53;;;35.07;;
6135;SDS011;24008;42.664;23.372;2024-03-02T07:22:11;66.60;;;34.13;;
6135;SDS011;24008;42.664;23.372;2024-03-02T07:24:40;68.67;;;32.97;;
6135;SDS011;24008;42.664;23.372;2024-03-02T07:27:08;71.47;;;34.13;;
6135;SDS011;24008;42.664;23.372;2024-03-02T07:29:36;70.63;;;33.03;;
6135;SDS011;24008;42.664;23.372;2024-03-02T07:32:03;72.67;;;33.70;;
6135;SDS011;24008;42.664;23.372;2024-03-02T07:34:30;71.67;;;32.90;;
6135;SDS011;24008;42.664;23.372;2024-03-02T07:36:57;64.50;;;33.00;;
6135;SDS011;24008;42.664;23.372;2024-03-02T07:39:23;66.77;;;31.93;;
6135;SDS011;24008;42.664;23.372;2024-03-02T07:41:50;64.23;;;31.63;;
6135;SDS011;24008;42.664;23.372;2024-03-02T07:44:17;64.60;;;31.40;;
6135;SDS011;24008;42.664;23.372;2024-03-02T07:46:45;63.00;;;30.70;;
6135;SDS011;24008;42.664;23.372;2024-03-02T07:49:13;61.00;;;28.97;;
6135;SDS011;24008;42.664;23.372;2024-03-02T07:51:39;66.43;;;30.43;;
6135;SDS011;24008;42.664;23.372;2024-03-02T07:54:06;60.77;;;30.77;;
6135;SDS011;24008;42.664;23.372;2024-03-02T07:56:33;62.37;;;29.57;;
6135;SDS011;24008;42.664;23.372;2024-03-02T07:59:00;61.27;;;30.67;;
6135;SDS011;24008;42.664;23.372;2024-03-02T08:01:27;55.47;;;27.13;;
6135;SDS011;24008;42.664;23.372;2024-03-02T08:03:56;60.87;;;29.60;;
6135;SDS011;24008;42.664;23.372;2024-03-02T08:06:23;62.37;;;28.30;;
6135;SDS011;24008;42.664;23.372;2024-03-02T08:08:52;57.60;;;29.67;;
6135;SDS011;24008;42.664;23.372;2024-03-02T08:11:19;65.73;;;31.00;;
6135;SDS011;24008;42.664;23.372;2024-03-02T08:13:46;59.10;;;30.10;;
6135;SDS011;24008;42.664;23.372;2024-03-02T08:16:13;61.17;;;29.77;;
6135;SDS011;24008;42.664;23.372;2024-03-02T08:18:40;61.50;;;28.87;;
6135;SDS011;24008;42.664;23.372;2024-03-02T08:21:09;63.57;;;30.37;;
6135;SDS011;24008;42.664;23.372;2024-03-02T08:23:36;60.67;;;30.03;;
6135;SDS011;24008;42.664;23.372;2024-03-02T08:26:03;55.93;;;28.30;;
6135;SDS011;24008;42.664;23.372;2024-03-02T08:28:30;59.80;;;28.67;;
6135;SDS011;24008;42.664;23.372;2024-03-02T08:30:57;57.97;;;28.63;;
6135;SDS011;24008;42.664;23.372;2024-03-02T08:33:24;61.43;;;28.57;;
6135;SDS011;24008;42.664;23.372;2024-03-02T08:35:51;60.50;;;29.00;;
6135;SDS011;24008;42.664;23.372;2024-03-02T08:38:19;54.07;;;27.57;;
6135;SDS011;24008;42.664;23.372;2024-03-02T08:40:46;53.70;;;28.47;;
6135;SDS011;24008;42.664;23.372;2024-03-02T08:43:13;59.73;;;29.20;;
6135;SDS011;24008;42.664;23.372;2024-03-02T08:45:40;59.87;;;30.03;;
6135;SDS011;24008;42.664;23.372;2024-03-02T08:48:07;56.00;;;28.33;;
6135;SDS011;24008;42.664;23.372;2024-03-02T08:50:35;57.67;;;29.73;;
6135;SDS011;24008;42.664;23.372;2024-03-02T08:53:05;60.43;;;30.23;;
6135;SDS011;24008;42.664;23.372;2024-03-02T08:55:33;55.63;;;28.40;;
6135;SDS011;24008;42.664;23.372;2024-03-02T08:58:00;56.17;;;29.47;;
6135;SDS011;24008;42.664;23.372;2024-03-02T09:00:27;57.23;;;28.53;;
6135;SDS011;24008;42.664;23.372;2024-03-02T09:02:54;54.70;;;28.90;;
6135;SDS011;24008;42.664;23.372;2024-03-02T09:05:20;61.00;;;29.87;;
6135;SDS011;24008;42.664;23.372;2024-03-02T09:07:47;56.67;;;29.13;;
6135;SDS011;24008;42.664;23.372;2024-03-02T09:10:14;58.67;;;29.73;;
6135;SDS011;24008;42.664;23.372;2024-03-02T09:12:42;58.27;;;30.03;;
6135;SDS011;24008;42.664;23.372;2024-03-02T09:15:09;50.47;;;25.70;;
6135;SDS011;24008;42.664;23.372;2024-03-02T09:17:36;49.53;;;27.57;;
6135;SDS011;24008;42.664;23.372;2024-03-02T09:20:03;49.97;;;26.70;;
6135;SDS011;24008;42.664;23.372;2024-03-02T09:22:30;54.83;;;28.90;;
6135;SDS011;24008;42.664;23.372;2024-03-02T09:24:57;49.70;;;26.80;;
6135;SDS011;24008;42.664;23.372;2024-03-02T09:27:24;47.70;;;25.23;;
6135;SDS011;24008;42.664;23.372;2024-03-02T09:29:52;47.47;;;26.13;;
6135;SDS011;24008;42.664;23.372;2024-03-02T09:32:19;46.87;;;25.47;;
6135;SDS011;24008;42.664;23.372;2024-03-02T09:34:45;50.50;;;26.10;;
6135;SDS011;24008;42.664;23.372;2024-03-02T09:37:13;47.33;;;27.83;;
6135;SDS011;24008;42.664;23.372;2024-03-02T09:39:40;50.20;;;27.53;;
6135;SDS011;24008;42.664;23.372;2024-03-02T09:42:10;54.50;;;27.83;;
6135;SDS011;24008;42.664;23.372;2024-03-02T09:44:37;49.33;;;26.33;;
6135;SDS011;24008;42.664;23.372;2024-03-02T09:47:06;48.30;;;28.00;;
6135;SDS011;24008;42.664;23.372;2024-03-02T09:49:34;48.73;;;26.03;;
6135;SDS011;24008;42.664;23.372;2024-03-02T09:52:01;54.57;;;26.87;;
6135;SDS011;24008;42.664;23.372;2024-03-02T09:54:31;47.13;;;25.53;;
6135;SDS011;24008;42.664;23.372;2024-03-02T09:56:58;49.77;;;25.63;;
6135;SDS011;24008;42.664;23.372;2024-03-02T09:59:27;48.63;;;25.97;;
6135;SDS011;24008;42.664;23.372;2024-03-02T10:01:57;47.80;;;24.80;;
6135;SDS011;24008;42.664;23.372;2024-03-02T10:04:27;49.80;;;26.50;;
6135;SDS011;24008;42.664;23.372;2024-03-02T10:07:10;47.47;;;25.20;;
6135;SDS011;24008;42.664;23.372;2024-03-02T10:09:38;47.00;;;24.93;;
6135;SDS011;24008;42.664;23.372;2024-03-02T10:12:06;45.50;;;25.17;;
6135;SDS011;24008;42.664;23.372;2024-03-02T10:14:34;50.33;;;27.30;;
6135;SDS011;24008;42.664;23.372;2024-03-02T10:17:02;46.07;;;25.10;;
6135;SDS011;24008;42.664;23.372;2024-03-02T10:19:31;47.70;;;25.17;;
6135;SDS011;24008;42.664;23.372;2024-03-02T10:22:00;45.90;;;23.93;;
6135;SDS011;24008;42.664;23.372;2024-03-02T10:24:28;47.80;;;24.70;;
6135;SDS011;24008;42.664;23.372;2024-03-02T10:27:02;43.43;;;23.97;;
6135;SDS011;24008;42.664;23.372;2024-03-02T10:29:36;43.87;;;23.77;;
6135;SDS011;24008;42.664;23.372;2024-03-02T10:32:04;45.50;;;24.40;;
6135;SDS011;24008;42.664;23.372;2024-03-02T10:34:33;47.97;;;25.53;;
6135;SDS011;24008;42.664;23.372;2024-03-02T10:37:01;42.10;;;23.77;;
6135;SDS011;24008;42.664;23.372;2024-03-02T10:39:29;39.33;;;22.23;;
6135;SDS011;24008;42.664;23.372;2024-03-02T10:41:57;41.47;;;22.80;;
6135;SDS011;24008;42.664;23.372;2024-03-02T10:44:25;41.37;;;23.20;;
6135;SDS011;24008;42.664;23.372;2024-03-02T10:46:52;43.33;;;22.93;;
6135;SDS011;24008;42.664;23.372;2024-03-02T10:49:22;39.13;;;22.67;;
6135;SDS011;24008;42.664;23.372;2024-03-02T10:51:51;40.87;;;22.30;;
6135;SDS011;24008;42.664;23.372;2024-03-02T10:54:18;39.90;;;21.87;;
6135;SDS011;24008;42.664;23.372;2024-03-02T10:56:51;39.60;;;21.43;;
6135;SDS011;24008;42.664;23.372;2024-03-02T10:59:22;37.53;;;21.87;;
6135;SDS011;24008;42.664;23.372;2024-03-02T11:01:54;38.70;;;20.80;;
6135;SDS011;24008;42.664;23.372;2024-03-02T11:04:23;37.07;;;21.47;;
6135;SDS011;24008;42.664;23.372;2024-03-02T11:06:54;37.20;;;20.27;;
6135;SDS011;24008;42.664;23.372;2024-03-02T11:09:26;35.47;;;20.50;;
6135;SDS011;24008;42.664;23.372;2024-03-02T11:11:56;36.03;;;20.20;;
6135;SDS011;24008;42.664;23.372;2024-03-02T11:14:29;36.80;;;20.33;;
6135;SDS011;24008;42.664;23.372;2024-03-02T11:16:58;35.67;;;19.73;;
6135;SDS011;24008;42.664;23.372;2024-03-02T11:19:26;40.03;;;20.90;;
6135;SDS011;24008;42.664;23.372;2024-03-02T11:21:55;37.77;;;21.17;;
6135;SDS011;24008;42.664;23.372;2024-03-02T11:24:29;35.53;;;19.17;;
6135;SDS011;24008;42.664;23.372;2024-03-02T11:26:59;38.13;;;21.63;;
6135;SDS011;24008;42.664;23.372;2024-03-02T11:29:45;34.23;;;20.07;;
6135;SDS011;24008;42.664;23.372;2024-03-02T11:32:14;32.73;;;18.50;;
6135;SDS011;24008;42.664;23.372;2024-03-02T11:34:47;33.00;;;17.97;;
6135;SDS011;24008;42.664;23.372;2024-03-02T11:37:17;31.23;;;18.77;;
6135;SDS011;24008;42.664;23.372;2024-03-02T11:39:45;33.77;;;18.97;;
6135;SDS011;24008;42.664;23.372;2024-03-02T11:42:13;33.13;;;18.77;;
6135;SDS011;24008;42.664;23.372;2024-03-02T11:44:42;33.20;;;18.43;;
6135;SDS011;24008;42.664;23.372;2024-03-02T11:47:11;30.13;;;18.17;;
6135;SDS011;24008;42.664;23.372;2024-03-02T11:49:41;29.43;;;17.57;;
6135;SDS011;24008;42.664;23.372;2024-03-02T11:52:09;31.90;;;17.87;;
6135;SDS011;24008;42.664;23.372;2024-03-02T11:54:38;30.70;;;17.13;;
6135;SDS011;24008;42.664;23.372;2024-03-02T11:57:06;30.50;;;16.40;;
6135;SDS011;24008;42.664;23.372;2024-03-02T11:59:34;28.90;;;16.47;;
6135;SDS011;24008;42.664;23.372;2024-03-02T12:02:01;26.33;;;16.37;;
6135;SDS011;24008;42.664;23.372;2024-03-02T12:04:28;26.80;;;16.80;;
6135;SDS011;24008;42.664;23.372;2024-03-02T12:06:56;27.70;;;16.90;;
6135;SDS011;24008;42.664;23.372;2024-03-02T12:09:25;25.87;;;15.90;;
6135;SDS011;24008;42.664;23.372;2024-03-02T12:12:04;30.17;;;16.23;;
6135;SDS011;24008;42.664;23.372;2024-03-02T12:14:31;25.93;;;16.10;;
6135;SDS011;24008;42.664;23.372;2024-03-02T12:16:59;25.47;;;15.93;;
6135;SDS011;24008;42.664;23.372;2024-03-02T12:19:26;24.10;;;15.40;;
6135;SDS011;24008;42.664;23.372;2024-03-02T12:21:55;23.80;;;14.80;;
6135;SDS011;24008;42.664;23.372;2024-03-02T12:24:22;25.93;;;15.93;;
6135;SDS011;24008;42.664;23.372;2024-03-02T12:26:49;24.80;;;15.77;;
6135;SDS011;24008;42.664;23.372;2024-03-02T12:29:17;26.30;;;15.47;;
6135;SDS011;24008;42.664;23.372;2024-03-02T12:31:45;24.40;;;15.73;;
6135;SDS011;24008;42.664;23.372;2024-03-02T12:34:12;21.53;;;14.93;;
6135;SDS011;24008;42.664;23.372;2024-03-02T12:36:40;24.33;;;15.23;;
6135;SDS011;24008;42.664;23.372;2024-03-02T12:39:07;27.13;;;15.60;;
6135;SDS011;24008;42.664;23.372;2024-03-02T12:41:35;22.30;;;13.87;;
6135;SDS011;24008;42.664;23.372;2024-03-02T12:44:03;22.53;;;14.23;;
6135;SDS011;24008;42.664;23.372;2024-03-02T12:46:32;24.33;;;15.13;;
6135;SDS011;24008;42.664;23.372;2024-03-02T12:49:04;24.97;;;15.77;;
6135;SDS011;24008;42.664;23.372;2024-03-02T12:51:34;25.57;;;15.73;;
6135;SDS011;24008;42.664;23.372;2024-03-02T12:54:01;25.47;;;14.97;;
6135;SDS011;24008;42.664;23.372;2024-03-02T12:56:30;23.13;;;15.87;;
6135;SDS011;24008;42.664;23.372;2024-03-02T12:58:58;22.23;;;14.40;;
6135;SDS011;24008;42.664;23.372;2024-03-02T13:01:25;23.63;;;14.53;;
6135;SDS011;24008;42.664;23.372;2024-03-02T13:03:54;23.33;;;14.90;;
6135;SDS011;24008;42.664;23.372;2024-03-02T13:06:22;22.10;;;14.23;;
6135;SDS011;24008;42.664;23.372;2024-03-02T13:08:49;24.60;;;14.50;;
6135;SDS011;24008;42.664;23.372;2024-03-02T13:11:16;21.83;;;14.27;;
6135;SDS011;24008;42.664;23.372;2024-03-02T13:13:46;21.17;;;13.70;;
6135;SDS011;24008;42.664;23.372;2024-03-02T13:16:13;24.13;;;14.77;;
6135;SDS011;24008;42.664;23.372;2024-03-02T13:18:41;22.83;;;14.90;;
6135;SDS011;24008;42.664;23.372;2024-03-02T13:21:09;23.50;;;14.03;;
6135;SDS011;24008;42.664;23.372;2024-03-02T13:23:36;21.90;;;14.07;;
6135;SDS011;24008;42.664;23.372;2024-03-02T13:26:03;25.63;;;15.03;;
6135;SDS011;24008;42.664;23.372;2024-03-02T13:28:30;23.40;;;14.87;;
6135;SDS011;24008;42.664;23.372;2024-03-02T13:30:57;23.17;;;14.17;;
6135;SDS011;24008;42.664;23.372;2024-03-02T13:33:23;21.90;;;14.07;;
6135;SDS011;24008;42.664;23.372;2024-03-02T13:35:50;21.63;;;15.03;;
6135;SDS011;24008;42.664;23.372;2024-03-02T13:38:19;23.73;;;15.90;;
6135;SDS011;24008;42.664;23.372;2024-03-02T13:40:47;24.70;;;15.43;;
6135;SDS011;24008;42.664;23.372;2024-03-02T13:43:16;23.73;;;15.80;;
6135;SDS011;24008;42.664;23.372;2024-03-02T13:45:43;24.77;;;16.10;;
6135;SDS011;24008;42.664;23.372;2024-03-02T13:48:10;25.10;;;16.40;;
6135;SDS011;24008;42.664;23.372;2024-03-02T13:50:37;25.53;;;16.57;;
6135;SDS011;24008;42.664;23.372;2024-03-02T13:53:04;25.77;;;16.53;;
6135;SDS011;24008;42.664;23.372;2024-03-02T13:55:33;26.73;;;16.90;;
6135;SDS011;24008;42.664;23.372;2024-03-02T13:58:00;28.07;;;17.63;;
6135;SDS011;24008;42.664;23.372;2024-03-02T14:00:27;27.90;;;17.30;;
6135;SDS011;24008;42.664;23.372;2024-03-02T14:02:54;29.23;;;18.47;;
6135;SDS011;24008;42.664;23.372;2024-03-02T14:05:21;27.97;;;17.53;;
6135;SDS011;24008;42.664;23.372;2024-03-02T14:07:48;29.03;;;18.80;;
6135;SDS011;24008;42.664;23.372;2024-03-02T14:10:15;30.57;;;19.70;;
6135;SDS011;24008;42.664;23.372;2024-03-02T14:12:44;31.37;;;19.17;;
6135;SDS011;24008;42.664;23.372;2024-03-02T14:15:11;28.20;;;18.37;;
6135;SDS011;24008;42.664;23.372;2024-03-02T14:17:38;29.50;;;19.07;;
6135;SDS011;24008;42.664;23.372;2024-03-02T14:20:05;29.03;;;17.83;;
6135;SDS011;24008;42.664;23.372;2024-03-02T14:22:35;30.17;;;19.80;;
6135;SDS011;24008;42.664;23.372;2024-03-02T14:25:02;29.20;;;18.73;;
6135;SDS011;24008;42.664;23.372;2024-03-02T14:27:29;27.67;;;18.73;;